createdAt,value
2023-01-30T00:01:09.669Z,89.76
2023-01-30T00:06:10.852Z,89.41
2023-01-30T00:11:11.973Z,89.98
2023-01-30T00:16:13.164Z,90.08
2023-01-30T00:21:15.304Z,90.82
2023-01-30T00:26:14.489Z,91.13
2023-01-30T00:31:14.679Z,90.82
2023-01-30T00:36:15.865Z,90.33
2023-01-30T00:41:18.050Z,91.07
2023-01-30T00:46:17.159Z,90.90
2023-01-30T00:51:18.305Z,90.33
2023-01-30T00:56:19.497Z,90.23
2023-01-30T01:01:20.645Z,91.22
2023-01-30T01:06:21.829Z,90.90
2023-01-30T01:11:23.010Z,90.80
2023-01-30T01:16:24.205Z,91.60
2023-01-30T01:21:25.396Z,92.02
2023-01-30T01:26:26.998Z,91.07
2023-01-30T01:31:26.389Z,91.64
2023-01-30T01:36:52.316Z,91.96
2023-01-30T01:41:28.553Z,91.74
2023-01-30T01:46:28.679Z,90.73
2023-01-30T01:51:30.832Z,91.89
2023-01-30T01:56:30.011Z,92.63
2023-01-30T02:01:31.203Z,91.19
2023-01-30T02:06:32.392Z,91.86
2023-01-30T02:11:33.577Z,91.97
2023-01-30T02:16:34.710Z,92.22
2023-01-30T02:21:35.890Z,92.22
2023-01-30T02:26:37.423Z,93.70
2023-01-30T02:31:36.725Z,93.28
2023-01-30T02:36:38.011Z,93.49
2023-01-30T02:41:40.154Z,94.17
2023-01-30T02:46:39.284Z,94.71
2023-01-30T02:51:40.423Z,93.34
2023-01-30T02:56:41.554Z,93.01
2023-01-30T03:01:42.714Z,93.57
2023-01-30T03:06:43.897Z,95.26
2023-01-30T03:11:45.072Z,95.01
2023-01-30T03:16:46.385Z,94.97
2023-01-30T03:21:47.588Z,93.98
2023-01-30T03:26:49.726Z,94.15
2023-01-30T03:31:49.942Z,93.13
2023-01-30T03:36:52.992Z,92.92
2023-01-30T03:41:51.182Z,93.13
2023-01-30T03:46:50.366Z,93.49
2023-01-30T03:51:51.582Z,93.28
2023-01-30T03:56:52.716Z,93.80
2023-01-30T04:01:53.869Z,94.40
2023-01-30T04:06:55.117Z,93.49
2023-01-30T04:11:56.280Z,93.70
2023-01-30T04:16:57.510Z,93.60
2023-01-30T04:21:58.705Z,93.70
2023-01-30T04:27:00.911Z,94.34
2023-01-30T04:32:00.054Z,94.55
2023-01-30T04:37:01.202Z,94.29
2023-01-30T04:42:03.327Z,93.73
2023-01-30T04:47:02.468Z,93.41
2023-01-30T04:52:03.621Z,93.73
2023-01-30T04:57:04.822Z,93.41
2023-01-30T05:02:06.056Z,93.05
2023-01-30T05:07:08.189Z,92.84
2023-01-30T05:12:07.348Z,93.51
2023-01-30T05:17:08.634Z,92.80
2023-01-30T05:22:09.782Z,92.65
2023-01-30T05:27:10.992Z,89.79
2023-01-30T05:32:13.137Z,88.07
2023-01-30T05:37:26.348Z,87.33
2023-01-30T05:42:13.472Z,86.66
2023-01-30T05:47:18.502Z,85.47
2023-01-30T05:52:15.653Z,86.13
2023-01-30T05:57:16.756Z,86.83
2023-01-30T06:02:17.946Z,84.63
2023-01-30T06:07:19.077Z,84.94
2023-01-30T06:12:20.198Z,84.77
2023-01-30T06:17:21.332Z,85.33
2023-01-30T06:22:22.452Z,86.38
2023-01-30T06:27:23.617Z,86.70
2023-01-30T06:32:24.802Z,86.28
2023-01-30T06:37:25.956Z,86.18
2023-01-30T06:42:27.105Z,86.38
2023-01-30T06:47:28.235Z,85.82
2023-01-30T06:52:30.389Z,85.61
2023-01-30T06:57:30.535Z,86.13
2023-01-30T07:02:29.690Z,86.35
2023-01-30T07:07:30.833Z,85.15
2023-01-30T07:12:32.013Z,86.07
2023-01-30T07:17:33.115Z,88.71
2023-01-30T07:22:34.249Z,89.91
2023-01-30T07:27:36.415Z,90.23
2023-01-30T07:32:35.607Z,89.87
2023-01-30T07:37:36.738Z,89.20
2023-01-30T07:42:37.904Z,89.14
2023-01-30T07:47:40.057Z,89.09
2023-01-30T07:52:39.196Z,88.53
2023-01-30T07:57:40.317Z,88.32
2023-01-30T08:02:41.477Z,87.85
2023-01-30T08:07:42.683Z,87.08
2023-01-30T08:12:43.792Z,86.72
2023-01-30T08:17:45.953Z,85.22
2023-01-30T08:22:46.076Z,84.55
2023-01-30T08:27:54.090Z,84.86
2023-01-30T08:32:45.512Z,83.57
2023-01-30T08:37:46.696Z,83.11
2023-01-30T08:42:51.709Z,82.45
2023-01-30T08:47:48.842Z,82.51
2023-01-30T08:52:50.279Z,80.69
2023-01-30T08:57:51.463Z,79.89
2023-01-30T09:02:53.631Z,80.97
2023-01-30T09:07:52.793Z,80.83
2023-01-30T09:12:53.937Z,80.27
2023-01-30T09:17:55.055Z,80.38
2023-01-30T09:22:55.212Z,80.24
2023-01-30T09:27:57.315Z,79.92
2023-01-30T09:32:56.505Z,80.02
2023-01-30T09:37:58.629Z,79.68
2023-01-30T09:42:58.759Z,78.00
2023-01-30T09:47:57.892Z,78.28
2023-01-30T09:53:00.025Z,76.82
2023-01-30T09:57:59.230Z,74.35
2023-01-30T10:03:01.405Z,74.87
2023-01-30T10:08:00.582Z,74.60
2023-01-30T10:13:04.069Z,74.46
2023-01-30T10:18:03.196Z,73.32
2023-01-30T10:23:06.339Z,74.08
2023-01-30T10:28:05.460Z,72.97
2023-01-30T10:33:06.668Z,73.14
2023-01-30T10:38:08.843Z,72.31
2023-01-30T10:43:09.963Z,71.13
2023-01-30T10:48:09.075Z,72.00
2023-01-30T10:53:10.204Z,69.89
2023-01-30T10:58:11.356Z,70.28
2023-01-30T11:03:12.495Z,67.72
2023-01-30T11:08:13.641Z,66.93
2023-01-30T11:13:15.750Z,66.86
2023-01-30T11:19:05.204Z,65.69
2023-01-30T11:23:14.831Z,63.93
2023-01-30T11:28:20.844Z,63.79
2023-01-30T11:33:16.927Z,62.48
2023-01-30T11:38:17.047Z,63.44
2023-01-30T11:43:16.224Z,63.41
2023-01-30T11:48:33.496Z,62.97
2023-01-30T11:53:17.295Z,61.62
2023-01-30T11:58:19.470Z,61.52
2023-01-30T12:03:18.603Z,61.69
2023-01-30T12:08:24.726Z,60.42
2023-01-30T12:13:20.699Z,60.81
2023-01-30T12:18:19.826Z,59.62
2023-01-30T12:23:20.944Z,59.59
2023-01-30T12:28:23.099Z,58.56
2023-01-30T12:33:23.307Z,58.33
2023-01-30T12:38:24.481Z,58.64
2023-01-30T12:43:23.601Z,57.34
2023-01-30T12:48:26.720Z,57.06
2023-01-30T12:53:25.892Z,54.87
2023-01-30T12:58:27.035Z,54.22
2023-01-30T13:03:28.162Z,53.09
2023-01-30T13:08:29.256Z,57.17
2023-01-30T13:13:30.392Z,57.79
2023-01-30T13:18:32.612Z,58.45
2023-01-30T13:23:31.718Z,58.06
2023-01-30T13:28:34.861Z,55.64
2023-01-30T13:33:35.000Z,56.36
2023-01-30T13:38:34.114Z,57.89
2023-01-30T13:43:35.249Z,57.99
2023-01-30T13:48:36.364Z,58.09
2023-01-30T13:53:37.678Z,58.01
2023-01-30T13:58:38.803Z,58.71
2023-01-30T14:03:43.787Z,59.44
2023-01-30T14:08:42.196Z,60.42
2023-01-30T14:13:41.373Z,61.40
2023-01-30T14:18:44.542Z,61.82
2023-01-30T14:23:44.637Z,61.85
2023-01-30T14:28:43.767Z,61.82
2023-01-30T14:33:45.882Z,62.05
2023-01-30T14:38:46.018Z,61.87
2023-01-30T14:43:46.155Z,62.18
2023-01-30T14:48:46.277Z,62.60
2023-01-30T14:53:45.391Z,61.64
2023-01-30T14:58:46.533Z,60.71
2023-01-30T15:03:49.647Z,60.81
2023-01-30T15:08:48.746Z,61.12
2023-01-30T15:13:50.912Z,60.91
2023-01-30T15:18:50.052Z,61.67
2023-01-30T15:23:51.173Z,61.02
2023-01-30T15:28:52.401Z,60.60
2023-01-30T15:33:54.556Z,60.30
2023-01-30T15:38:54.692Z,61.80
2023-01-30T15:43:52.886Z,62.76
2023-01-30T15:48:54.044Z,64.65
2023-01-30T15:53:55.191Z,65.80
2023-01-30T15:58:58.306Z,65.87
2023-01-30T16:03:57.441Z,66.90
2023-01-30T16:08:59.543Z,66.49
2023-01-30T16:13:59.674Z,65.77
2023-01-30T16:18:58.815Z,66.59
2023-01-30T16:24:00.972Z,66.49
2023-01-30T16:29:01.129Z,65.77
2023-01-30T16:34:00.477Z,66.77
2023-01-30T16:39:01.724Z,68.63
2023-01-30T16:44:03.030Z,71.04
2023-01-30T16:49:04.217Z,70.84
2023-01-30T16:54:05.391Z,71.67
2023-01-30T16:59:06.624Z,73.53
2023-01-30T17:04:08.816Z,74.95
2023-01-30T17:09:07.977Z,77.15
2023-01-30T17:14:10.352Z,77.33
2023-01-30T17:19:10.559Z,77.67
2023-01-30T17:24:09.751Z,78.50
2023-01-30T17:29:23.079Z,78.88
2023-01-30T17:34:12.099Z,78.99
2023-01-30T17:39:11.265Z,78.99
2023-01-30T17:44:12.569Z,80.99
2023-01-30T17:49:14.135Z,81.92
2023-01-30T17:54:13.749Z,81.61
2023-01-30T17:59:13.140Z,81.09
2023-01-30T18:04:14.325Z,82.48
2023-01-30T18:09:15.477Z,82.68
2023-01-30T18:14:16.799Z,83.00
2023-01-30T18:19:18.246Z,86.97
2023-01-30T18:24:18.635Z,90.37
2023-01-30T18:29:19.113Z,90.89
2023-01-30T18:34:18.528Z,90.64
2023-01-30T18:39:20.994Z,91.76
2023-01-30T18:44:25.955Z,93.57
2023-01-30T18:49:22.498Z,93.16
2023-01-30T18:54:22.043Z,93.16
2023-01-30T18:59:20.518Z,92.84
2023-01-30T19:04:23.008Z,93.05
2023-01-30T19:09:22.314Z,92.84
2023-01-30T19:14:24.205Z,91.55
2023-01-30T19:19:25.039Z,90.83
2023-01-30T19:24:25.940Z,90.62
2023-01-30T19:29:26.421Z,89.44
2023-01-30T19:34:24.630Z,88.51
2023-01-30T19:39:27.009Z,86.12
2023-01-30T19:44:27.507Z,86.29
2023-01-30T19:49:27.987Z,86.85
2023-01-30T19:54:28.421Z,86.43
2023-01-30T19:59:28.860Z,87.05
2023-01-30T20:04:29.082Z,87.78
2023-01-30T20:09:28.519Z,87.71
2023-01-30T20:14:31.823Z,87.82
2023-01-30T20:19:31.109Z,87.65
2023-01-30T20:24:32.515Z,87.19
2023-01-30T20:29:32.043Z,85.85
2023-01-30T20:34:32.373Z,85.81
2023-01-30T20:39:31.879Z,85.95
2023-01-30T20:44:33.429Z,86.78
2023-01-30T20:49:30.867Z,87.34
2023-01-30T20:54:32.052Z,87.69
2023-01-30T20:59:35.541Z,87.90
2023-01-30T21:04:35.826Z,87.38
2023-01-30T21:09:36.339Z,86.93
2023-01-30T21:14:34.702Z,87.48
2023-01-30T21:19:37.162Z,88.15
2023-01-30T21:24:35.580Z,87.48
2023-01-30T21:29:39.118Z,86.93
2023-01-30T21:34:37.846Z,86.96
2023-01-30T21:39:37.493Z,88.52
2023-01-30T21:44:37.115Z,88.94
2023-01-30T21:49:38.872Z,89.67
2023-01-30T21:54:39.159Z,89.98
2023-01-30T21:59:38.926Z,90.19
2023-01-30T22:04:37.666Z,90.39
2023-01-30T22:09:38.897Z,90.50
2023-01-30T22:14:40.020Z,89.98
2023-01-30T22:19:41.123Z,90.39
2023-01-30T22:24:42.270Z,89.73
2023-01-30T22:29:43.372Z,89.52
2023-01-30T22:34:44.680Z,89.11
2023-01-30T22:39:45.790Z,88.54
2023-01-30T22:44:47.960Z,89.11
2023-01-30T22:49:48.056Z,88.85
2023-01-30T22:54:47.444Z,88.79
2023-01-30T22:59:48.661Z,89.11
2023-01-30T23:04:49.794Z,89.56
2023-01-30T23:09:50.930Z,90.64
2023-01-30T23:14:52.043Z,91.31
2023-01-30T23:19:53.544Z,91.06
2023-01-30T23:24:53.331Z,91.62
2023-01-30T23:29:52.500Z,91.00
2023-01-30T23:34:53.635Z,90.89
2023-01-30T23:39:55.754Z,91.16
2023-01-30T23:44:56.024Z,91.41
2023-01-30T23:49:55.157Z,91.52
2023-01-30T23:54:56.348Z,91.31
2023-01-30T23:59:57.722Z,91.10
